createdAt,value
2023-04-10T00:00:53.119Z,102489.16
2023-04-10T00:03:20.842Z,102490.00
2023-04-10T00:05:48.585Z,102487.81
2023-04-10T00:08:17.620Z,102487.72
2023-04-10T00:10:45.226Z,102480.72
2023-04-10T00:13:12.836Z,102481.34
2023-04-10T00:15:40.708Z,102488.41
2023-04-10T00:18:08.577Z,102490.38
2023-04-10T00:20:36.634Z,102484.94
2023-04-10T00:23:04.212Z,102484.94
2023-04-10T00:25:33.279Z,102487.47
2023-04-10T00:28:00.894Z,102487.34
2023-04-10T00:30:28.951Z,102489.13
2023-04-10T00:32:56.639Z,102477.59
2023-04-10T00:35:24.265Z,102492.53
2023-04-10T00:37:52.421Z,102488.88
2023-04-10T00:40:20.081Z,102485.28
2023-04-10T00:42:49.124Z,102477.81
2023-04-10T00:45:16.743Z,102482.16
2023-04-10T00:47:44.510Z,102468.31
2023-04-10T00:50:12.553Z,102476.16
2023-04-10T00:52:40.240Z,102472.50
2023-04-10T00:55:09.110Z,102475.06
2023-04-10T00:57:37.062Z,102472.25
2023-04-10T01:00:07.001Z,102472.16
2023-04-10T01:02:34.708Z,102473.75
2023-04-10T01:05:02.509Z,102469.88
2023-04-10T01:07:43.024Z,102467.22
2023-04-10T01:10:18.849Z,102471.56
2023-04-10T01:12:57.775Z,102470.47
2023-04-10T01:15:29.552Z,102471.19
2023-04-10T01:18:05.645Z,102468.41
2023-04-10T01:20:35.785Z,102460.22
2023-04-10T01:23:33.119Z,102462.97
2023-04-10T01:26:04.454Z,102465.97
2023-04-10T01:28:57.276Z,102471.16
2023-04-10T01:31:31.251Z,102466.56
2023-04-10T01:34:04.358Z,102458.50
2023-04-10T01:36:49.857Z,102460.16
2023-04-10T01:39:20.306Z,102452.13
2023-04-10T01:41:50.996Z,102451.00
2023-04-10T01:44:22.554Z,102441.97
2023-04-10T01:46:51.472Z,102446.31
2023-04-10T01:49:20.120Z,102438.97
2023-04-10T01:51:48.784Z,102434.34
2023-04-10T01:54:18.051Z,102430.75
2023-04-10T01:56:45.938Z,102427.84
2023-04-10T01:59:13.709Z,102424.09
2023-04-10T02:01:42.742Z,102427.44
2023-04-10T02:04:10.478Z,102420.09
2023-04-10T02:06:44.795Z,102410.44
2023-04-10T02:09:19.119Z,102416.47
2023-04-10T02:11:52.922Z,102413.56
2023-04-10T02:14:23.064Z,102402.13
2023-04-10T02:16:56.349Z,102408.28
2023-04-10T02:19:26.102Z,102407.69
2023-04-10T02:21:54.618Z,102404.78
2023-04-10T02:24:22.806Z,102401.41
2023-04-10T02:26:51.897Z,102390.69
2023-04-10T02:29:20.380Z,102389.00
2023-04-10T02:31:48.370Z,102385.25
2023-04-10T02:34:17.337Z,102388.28
2023-04-10T02:36:45.105Z,102376.25
2023-04-10T02:39:12.742Z,102378.63
2023-04-10T02:41:40.330Z,102362.56
2023-04-10T02:44:07.949Z,102367.88
2023-04-10T02:46:35.722Z,102359.22
2023-04-10T02:49:04.355Z,102348.88
2023-04-10T02:51:37.032Z,102355.47
2023-04-10T02:54:04.736Z,102347.31
2023-04-10T02:56:34.734Z,102345.75
2023-04-10T02:59:02.329Z,102341.81
2023-04-10T03:01:30.807Z,102337.75
2023-04-10T03:03:59.027Z,102332.72
2023-04-10T03:06:27.379Z,102328.59
2023-04-10T03:08:56.651Z,102328.59
2023-04-10T03:11:24.303Z,102328.97
2023-04-10T03:13:52.240Z,102322.84
2023-04-10T03:16:20.687Z,102320.31
2023-04-10T03:18:48.614Z,102329.22
2023-04-10T03:21:16.462Z,102323.13
2023-04-10T03:23:44.036Z,102327.56
2023-04-10T03:26:13.000Z,102320.56
2023-04-10T03:28:41.378Z,102326.81
2023-04-10T03:31:09.683Z,102327.81
2023-04-10T03:33:37.462Z,102322.63
2023-04-10T03:36:05.738Z,102323.63
2023-04-10T03:38:33.484Z,102323.88
2023-04-10T03:41:01.179Z,102320.38
2023-04-10T03:43:30.608Z,102326.75
2023-04-10T03:45:58.229Z,102315.59
2023-04-10T03:48:28.047Z,102314.84
2023-04-10T03:50:55.993Z,102317.63
2023-04-10T03:53:23.714Z,102316.19
2023-04-10T03:55:52.401Z,102315.63
2023-04-10T03:58:20.408Z,102315.75
2023-04-10T04:00:49.401Z,102305.31
2023-04-10T04:03:17.380Z,102300.13
2023-04-10T04:05:45.223Z,102300.25
2023-04-10T04:08:14.030Z,102300.38
2023-04-10T04:10:41.704Z,102298.69
2023-04-10T04:13:09.324Z,102292.69
2023-04-10T04:15:37.072Z,102298.94
2023-04-10T04:18:06.268Z,102296.28
2023-04-10T04:20:34.173Z,102294.63
2023-04-10T04:23:01.803Z,102293.78
2023-04-10T04:25:29.448Z,102295.47
2023-04-10T04:27:57.568Z,102295.56
2023-04-10T04:30:25.266Z,102303.25
2023-04-10T04:32:52.998Z,102289.09
2023-04-10T04:35:23.037Z,102299.41
2023-04-10T04:37:50.716Z,102292.88
2023-04-10T04:40:18.399Z,102290.72
2023-04-10T04:42:46.131Z,102293.22
2023-04-10T04:45:14.212Z,102287.44
2023-04-10T04:47:41.871Z,102285.97
2023-04-10T04:50:11.093Z,102291.84
2023-04-10T04:52:40.067Z,102285.81
2023-04-10T04:55:08.714Z,102285.06
2023-04-10T04:57:36.318Z,102286.78
2023-04-10T05:00:04.423Z,102275.16
2023-04-10T05:02:32.166Z,102273.16
2023-04-10T05:05:00.394Z,102272.28
2023-04-10T05:07:28.205Z,102267.31
2023-04-10T05:09:57.210Z,102267.66
2023-04-10T05:12:24.846Z,102253.19
2023-04-10T05:14:52.515Z,102246.69
2023-04-10T05:17:20.405Z,102244.88
2023-04-10T05:19:48.048Z,102250.19
2023-04-10T05:22:16.920Z,102245.06
2023-04-10T05:24:46.316Z,102239.56
2023-04-10T05:27:15.359Z,102240.97
2023-04-10T05:29:42.980Z,102237.09
2023-04-10T05:32:10.930Z,102225.28
2023-04-10T05:34:38.519Z,102219.91
2023-04-10T05:37:06.265Z,102223.22
2023-04-10T05:39:33.912Z,102212.28
2023-04-10T05:42:02.002Z,102210.31
2023-04-10T05:44:31.874Z,102209.78
2023-04-10T05:46:59.491Z,102202.28
2023-04-10T05:49:27.486Z,102195.88
2023-04-10T05:51:55.143Z,102201.66
2023-04-10T05:54:22.849Z,102192.63
2023-04-10T05:56:50.543Z,102182.31
2023-04-10T05:59:18.189Z,102186.59
2023-04-10T06:01:47.619Z,102177.69
2023-04-10T06:04:15.509Z,102180.41
2023-04-10T06:06:43.779Z,102170.16
2023-04-10T06:09:11.378Z,102165.56
2023-04-10T06:11:39.056Z,102157.25
2023-04-10T06:14:06.678Z,102156.50
2023-04-10T06:16:34.572Z,102152.19
2023-04-10T06:19:04.451Z,102148.25
2023-04-10T06:21:32.117Z,102147.19
2023-04-10T06:23:59.810Z,102146.66
2023-04-10T06:26:27.417Z,102144.34
2023-04-10T06:28:55.383Z,102144.97
2023-04-10T06:31:23.518Z,102147.69
2023-04-10T06:33:51.518Z,102136.22
2023-04-10T06:36:20.634Z,102139.38
2023-04-10T06:38:48.387Z,102150.75
2023-04-10T06:41:16.303Z,102130.31
2023-04-10T06:43:43.954Z,102139.56
2023-04-10T06:46:11.736Z,102137.50
2023-04-10T06:48:39.874Z,102131.63
2023-04-10T06:51:08.198Z,102136.31
2023-04-10T06:53:37.198Z,102134.22
2023-04-10T06:56:05.286Z,102135.41
2023-04-10T06:58:33.088Z,102133.69
2023-04-10T07:01:04.323Z,102118.59
2023-04-10T07:03:32.484Z,102135.59
2023-04-10T07:06:01.954Z,102126.75
2023-04-10T07:08:29.735Z,102136.25
2023-04-10T07:10:59.016Z,102144.78
2023-04-10T07:13:26.775Z,102138.63
2023-04-10T07:15:54.471Z,102137.56
2023-04-10T07:18:22.192Z,102130.66
2023-04-10T07:20:50.084Z,102133.84
2023-04-10T07:23:17.679Z,102135.81
2023-04-10T07:25:45.675Z,102129.25
2023-04-10T07:28:14.657Z,102127.72
2023-04-10T07:30:42.294Z,102130.75
2023-04-10T07:33:10.063Z,102125.00
2023-04-10T07:35:37.827Z,102119.53
2023-04-10T07:38:05.513Z,102122.41
2023-04-10T07:40:33.129Z,102117.50
2023-04-10T07:43:00.801Z,102116.38
2023-04-10T07:45:29.870Z,102117.22
2023-04-10T07:47:59.625Z,102108.16
2023-04-10T07:50:27.511Z,102107.22
2023-04-10T07:52:55.225Z,102110.53
2023-04-10T07:55:23.200Z,102101.06
2023-04-10T07:57:52.213Z,102092.50
2023-04-10T08:00:20.221Z,102092.16
2023-04-10T08:02:49.297Z,102087.84
2023-04-10T08:05:17.188Z,102083.09
2023-04-10T08:07:45.735Z,102086.28
2023-04-10T08:10:13.492Z,102072.50
2023-04-10T08:12:41.135Z,102087.28
2023-04-10T08:15:09.442Z,102082.78
2023-04-10T08:17:37.078Z,102078.44
2023-04-10T08:20:07.253Z,102081.94
2023-04-10T08:22:34.987Z,102073.56
2023-04-10T08:25:02.746Z,102071.22
2023-04-10T08:27:31.026Z,102072.16
2023-04-10T08:29:58.640Z,102067.75
2023-04-10T08:32:27.612Z,102062.41
2023-04-10T08:34:55.419Z,102052.41
2023-04-10T08:37:24.420Z,102053.41
2023-04-10T08:39:51.973Z,102043.81
2023-04-10T08:42:19.932Z,102039.50
2023-04-10T08:44:49.971Z,102044.13
2023-04-10T08:47:21.573Z,102044.56
2023-04-10T08:49:54.820Z,102045.47
2023-04-10T08:52:26.049Z,102040.84
2023-04-10T08:54:55.985Z,102028.00
2023-04-10T08:57:26.878Z,102027.50
2023-04-10T08:59:54.642Z,102032.53
2023-04-10T09:02:23.231Z,102022.88
2023-04-10T09:04:54.584Z,102022.50
2023-04-10T09:07:24.095Z,102002.41
2023-04-10T09:09:51.703Z,102002.44
2023-04-10T09:12:19.379Z,102009.56
2023-04-10T09:14:49.730Z,102000.44
2023-04-10T09:17:19.564Z,101998.63
2023-04-10T09:19:48.457Z,101994.09
2023-04-10T09:22:17.440Z,101987.72
2023-04-10T09:24:48.236Z,101987.09
2023-04-10T09:27:31.293Z,101973.22
2023-04-10T09:29:59.364Z,101974.25
2023-04-10T09:32:38.554Z,101973.84
2023-04-10T09:35:07.250Z,101958.06
2023-04-10T09:37:35.700Z,101965.94
2023-04-10T09:40:05.890Z,101955.72
2023-04-10T09:42:34.515Z,101937.06
2023-04-10T09:45:02.484Z,101943.50
2023-04-10T09:47:30.822Z,101941.56
2023-04-10T09:50:00.666Z,101934.09
2023-04-10T09:52:30.216Z,101927.03
2023-04-10T09:54:59.609Z,101923.13
2023-04-10T09:57:31.222Z,101923.47
2023-04-10T10:00:01.252Z,101911.38
2023-04-10T10:02:31.418Z,101904.91
2023-04-10T10:05:01.331Z,101914.72
2023-04-10T10:07:30.783Z,101900.22
2023-04-10T10:09:59.577Z,101896.91
2023-04-10T10:12:35.181Z,101894.56
2023-04-10T10:15:10.146Z,101882.91
2023-04-10T10:17:44.526Z,101880.00
2023-04-10T10:20:14.798Z,101875.38
2023-04-10T10:22:43.187Z,101870.25
2023-04-10T10:25:11.588Z,101859.81
2023-04-10T10:27:42.659Z,101860.88
2023-04-10T10:30:25.314Z,101847.75
2023-04-10T10:32:58.711Z,101845.50
2023-04-10T10:35:29.700Z,101826.81
2023-04-10T10:38:01.276Z,101836.19
2023-04-10T10:40:33.305Z,101819.28
2023-04-10T10:43:09.372Z,101818.56
2023-04-10T10:45:45.202Z,101811.56
2023-04-10T10:48:13.042Z,101810.59
2023-04-10T10:50:58.745Z,101805.19
2023-04-10T10:53:47.478Z,101810.72
2023-04-10T10:56:37.240Z,101811.16
2023-04-10T10:59:06.274Z,101796.31
2023-04-10T11:01:34.003Z,101788.25
2023-04-10T11:04:02.282Z,101783.34
2023-04-10T11:06:53.070Z,101775.84
2023-04-10T11:09:48.025Z,101772.06
2023-04-10T11:12:16.366Z,101765.75
2023-04-10T11:14:47.111Z,101755.41
2023-04-10T11:17:34.759Z,101751.19
2023-04-10T11:20:03.449Z,101753.53
2023-04-10T11:22:31.273Z,101749.09
2023-04-10T11:25:01.807Z,101754.34
2023-04-10T11:27:48.664Z,101739.47
2023-04-10T11:30:31.742Z,101730.59
2023-04-10T11:33:00.516Z,101721.72
2023-04-10T11:35:28.733Z,101722.78
2023-04-10T11:38:12.802Z,101723.78
2023-04-10T11:40:56.216Z,101719.72
2023-04-10T11:43:24.053Z,101712.19
2023-04-10T11:46:00.922Z,101705.38
2023-04-10T11:48:29.293Z,101708.44
2023-04-10T11:50:57.118Z,101713.84
2023-04-10T11:53:24.766Z,101701.09
2023-04-10T11:55:52.405Z,101692.88
2023-04-10T11:58:24.219Z,101687.22
2023-04-10T12:01:04.157Z,101690.41
2023-04-10T12:03:39.224Z,101677.09
2023-04-10T12:06:12.495Z,101674.63
2023-04-10T12:08:41.684Z,101680.97
2023-04-10T12:11:11.206Z,101665.66
2023-04-10T12:13:39.371Z,101658.41
2023-04-10T12:16:10.697Z,101661.59
2023-04-10T12:18:39.148Z,101664.50
2023-04-10T12:21:08.600Z,101644.72
2023-04-10T12:23:39.089Z,101650.50
2023-04-10T12:26:09.977Z,101655.56
2023-04-10T12:28:38.488Z,101647.56
2023-04-10T12:31:06.837Z,101640.84
2023-04-10T12:33:36.092Z,101626.84
2023-04-10T12:36:04.054Z,101633.69
2023-04-10T12:38:41.892Z,101619.44
2023-04-10T12:41:11.215Z,101626.81
2023-04-10T12:43:40.161Z,101609.63
2023-04-10T12:46:09.764Z,101618.13
2023-04-10T12:48:38.717Z,101599.56
2023-04-10T12:51:06.758Z,101606.03
2023-04-10T12:53:44.816Z,101593.97
2023-04-10T12:56:13.534Z,101586.78
2023-04-10T12:58:42.677Z,101582.97
2023-04-10T13:01:11.112Z,101572.59
2023-04-10T13:03:40.438Z,101565.09
2023-04-10T13:06:09.250Z,101564.75
2023-04-10T13:08:37.354Z,101552.75
2023-04-10T13:11:05.811Z,101547.91
2023-04-10T13:13:33.488Z,101542.38
2023-04-10T13:16:01.302Z,101533.06
2023-04-10T13:18:29.293Z,101534.13
2023-04-10T13:20:58.196Z,101522.75
2023-04-10T13:23:25.834Z,101513.56
2023-04-10T13:25:53.535Z,101484.63
2023-04-10T13:28:21.532Z,101491.47
2023-04-10T13:30:49.280Z,101491.66
2023-04-10T13:33:16.956Z,101485.09
2023-04-10T13:35:44.749Z,101475.44
2023-04-10T13:38:13.716Z,101460.03
2023-04-10T13:40:41.304Z,101474.38
2023-04-10T13:43:09.283Z,101454.91
2023-04-10T13:45:36.917Z,101451.81
2023-04-10T13:48:07.114Z,101455.88
2023-04-10T13:50:34.945Z,101436.94
2023-04-10T13:53:02.832Z,101436.16
2023-04-10T13:55:31.769Z,101423.59
2023-04-10T13:57:59.691Z,101420.44
2023-04-10T14:00:27.772Z,101419.91
2023-04-10T14:02:55.572Z,101406.16
2023-04-10T14:05:23.341Z,101401.66
2023-04-10T14:07:51.847Z,101393.28
2023-04-10T14:10:20.240Z,101380.22
2023-04-10T14:12:49.246Z,101382.13
2023-04-10T14:15:16.885Z,101366.94
2023-04-10T14:17:44.547Z,101364.03
2023-04-10T14:20:13.258Z,101355.69
2023-04-10T14:22:41.057Z,101346.41
2023-04-10T14:25:13.709Z,101350.38
2023-04-10T14:27:41.625Z,101342.28
2023-04-10T14:30:11.297Z,101331.75
2023-04-10T14:32:40.192Z,101329.53
2023-04-10T14:35:09.026Z,101323.28
2023-04-10T14:37:36.668Z,101319.41
2023-04-10T14:40:05.634Z,101322.03
2023-04-10T14:42:33.257Z,101319.78
2023-04-10T14:45:00.965Z,101307.50
2023-04-10T14:47:29.997Z,101306.13
2023-04-10T14:49:57.696Z,101301.28
2023-04-10T14:52:25.396Z,101302.34
2023-04-10T14:54:53.180Z,101299.06
2023-04-10T14:57:20.810Z,101287.16
2023-04-10T14:59:48.462Z,101279.94
2023-04-10T15:02:16.106Z,101279.44
2023-04-10T15:04:45.117Z,101270.50
2023-04-10T15:07:14.596Z,101255.78
2023-04-10T15:09:43.744Z,101243.69
2023-04-10T15:12:11.416Z,101241.47
2023-04-10T15:14:38.976Z,101236.56
2023-04-10T15:17:06.596Z,101238.00
2023-04-10T15:19:34.236Z,101223.56
2023-04-10T15:22:03.489Z,101213.09
2023-04-10T15:24:37.025Z,101204.66
2023-04-10T15:27:11.024Z,101193.34
2023-04-10T15:29:39.870Z,101179.00
2023-04-10T15:32:07.948Z,101172.69
2023-04-10T15:34:35.550Z,101169.22
2023-04-10T15:37:04.626Z,101162.69
2023-04-10T15:39:32.224Z,101161.38
2023-04-10T15:42:00.253Z,101162.59
2023-04-10T15:44:27.966Z,101159.69
2023-04-10T15:46:55.590Z,101149.06
2023-04-10T15:49:33.726Z,101139.13
2023-04-10T15:52:06.789Z,101118.50
2023-04-10T15:54:35.079Z,101117.81
2023-04-10T15:57:02.990Z,101120.09
2023-04-10T15:59:30.757Z,101126.56
2023-04-10T16:01:58.441Z,101114.59
2023-04-10T16:04:26.269Z,101121.63
2023-04-10T16:06:55.949Z,101118.00
2023-04-10T16:09:26.463Z,101106.47
2023-04-10T16:11:54.864Z,101109.38
2023-04-10T16:14:23.365Z,101108.56
2023-04-10T16:16:51.247Z,101092.72
2023-04-10T16:19:18.885Z,101087.69
2023-04-10T16:21:46.872Z,101094.72
2023-04-10T16:24:14.908Z,101098.00
2023-04-10T16:26:43.904Z,101081.25
2023-04-10T16:29:11.542Z,101089.44
2023-04-10T16:31:39.204Z,101087.19
2023-04-10T16:34:07.300Z,101083.38
2023-04-10T16:36:34.927Z,101074.59
2023-04-10T16:39:02.553Z,101076.06
2023-04-10T16:41:30.181Z,101062.59
2023-04-10T16:43:59.163Z,101054.41
2023-04-10T16:46:27.153Z,101047.22
2023-04-10T16:48:55.191Z,101049.69
2023-04-10T16:51:24.340Z,101038.19
2023-04-10T16:53:52.090Z,101037.44
2023-04-10T16:56:19.681Z,101029.44
2023-04-10T16:58:47.398Z,101023.47
2023-04-10T17:01:19.230Z,101014.06
2023-04-10T17:03:48.250Z,100997.75
2023-04-10T17:06:16.568Z,100994.81
2023-04-10T17:08:44.466Z,100997.50
2023-04-10T17:11:13.408Z,100998.31
2023-04-10T17:13:41.339Z,100992.56
2023-04-10T17:16:10.569Z,100982.47
2023-04-10T17:18:39.708Z,100987.28
2023-04-10T17:21:11.514Z,100984.81
2023-04-10T17:23:40.040Z,100975.56
2023-04-10T17:26:13.001Z,100973.53
2023-04-10T17:28:40.832Z,100972.56
2023-04-10T17:31:08.972Z,100976.97
2023-04-10T17:33:36.669Z,100970.06
2023-04-10T17:36:06.119Z,100959.75
2023-04-10T17:38:33.736Z,100957.34
2023-04-10T17:41:01.377Z,100956.75
2023-04-10T17:43:29.018Z,100952.88
2023-04-10T17:45:56.636Z,100955.78
2023-04-10T17:48:24.444Z,100949.44
2023-04-10T17:50:52.483Z,100947.06
2023-04-10T17:53:21.543Z,100959.47
2023-04-10T17:55:49.162Z,100946.13
2023-04-10T17:58:17.145Z,100949.25
2023-04-10T18:00:44.705Z,100947.47
2023-04-10T18:03:12.410Z,100952.91
2023-04-10T18:05:40.166Z,100951.69
2023-04-10T18:08:08.598Z,100943.25
2023-04-10T18:10:37.719Z,100952.19
2023-04-10T18:13:05.606Z,100952.88
2023-04-10T18:15:33.533Z,100946.06
2023-04-10T18:18:01.189Z,100948.56
2023-04-10T18:20:28.905Z,100944.47
2023-04-10T18:22:56.580Z,100934.41
2023-04-10T18:25:24.197Z,100939.16
2023-04-10T18:28:12.945Z,100923.91
2023-04-10T18:30:40.902Z,100927.88
2023-04-10T18:33:11.050Z,100924.34
2023-04-10T18:35:39.253Z,100916.97
2023-04-10T18:38:07.376Z,100917.41
2023-04-10T18:40:36.647Z,100913.31
2023-04-10T18:43:05.806Z,100906.28
2023-04-10T18:45:34.209Z,100905.69
2023-04-10T18:48:01.976Z,100901.34
2023-04-10T18:50:29.916Z,100882.19
2023-04-10T18:52:57.546Z,100889.44
2023-04-10T18:55:25.379Z,100890.66
2023-04-10T18:57:53.225Z,100878.50
2023-04-10T19:00:22.581Z,100885.75
2023-04-10T19:02:50.382Z,100878.97
2023-04-10T19:05:18.246Z,100877.91
2023-04-10T19:07:56.523Z,100884.31
2023-04-10T19:10:29.085Z,100890.13
2023-04-10T19:12:57.300Z,100863.53
2023-04-10T19:15:26.434Z,100884.16
2023-04-10T19:17:54.552Z,100882.50
2023-04-10T19:20:48.868Z,100883.19
2023-04-10T19:23:11.048Z,100893.09
2023-04-10T19:25:38.646Z,100893.13
2023-04-10T19:28:07.062Z,100888.44
2023-04-10T19:30:36.025Z,100899.63
2023-04-10T19:33:03.786Z,100908.81
2023-04-10T19:35:31.524Z,100921.25
2023-04-10T19:37:59.245Z,100953.25
2023-04-10T19:40:26.927Z,100957.28
2023-04-10T19:42:54.621Z,100952.59
2023-04-10T19:45:23.646Z,100946.19
2023-04-10T19:47:52.885Z,100954.81
2023-04-10T19:50:20.809Z,100938.31
2023-04-10T19:52:48.499Z,100933.56
2023-04-10T19:55:18.697Z,100932.53
2023-04-10T19:57:46.636Z,100924.72
2023-04-10T20:00:15.006Z,100920.97
2023-04-10T20:02:42.911Z,100913.56
2023-04-10T20:05:12.187Z,100888.25
2023-04-10T20:07:40.603Z,100862.13
2023-04-10T20:10:09.409Z,100825.88
2023-04-10T20:12:37.071Z,100811.84
2023-04-10T20:15:05.982Z,100805.06
2023-04-10T20:17:33.628Z,100800.94
2023-04-10T20:20:01.323Z,100781.44
2023-04-10T20:22:30.367Z,100754.75
2023-04-10T20:24:58.411Z,100750.59
2023-04-10T20:27:26.197Z,100736.06
2023-04-10T20:29:53.786Z,100699.69
2023-04-10T20:32:21.421Z,100705.03
2023-04-10T20:34:49.030Z,100717.34
2023-04-10T20:37:21.576Z,100704.00
2023-04-10T20:39:50.688Z,100681.22
2023-04-10T20:42:18.279Z,100701.34
2023-04-10T20:44:45.872Z,100700.94
2023-04-10T20:47:13.923Z,100695.78
2023-04-10T20:49:41.609Z,100688.41
2023-04-10T20:52:09.775Z,100676.50
2023-04-10T20:54:37.436Z,100673.59
2023-04-10T20:57:06.463Z,100673.88
2023-04-10T20:59:35.957Z,100653.72
2023-04-10T21:02:03.749Z,100647.75
2023-04-10T21:04:32.617Z,100639.34
2023-04-10T21:07:00.391Z,100633.59
2023-04-10T21:09:28.108Z,100629.03
2023-04-10T21:11:57.251Z,100613.22
2023-04-10T21:14:26.223Z,100603.13
2023-04-10T21:16:54.120Z,100601.47
2023-04-10T21:19:21.791Z,100598.59
2023-04-10T21:21:49.383Z,100598.38
2023-04-10T21:24:17.059Z,100607.63
2023-04-10T21:26:45.072Z,100610.31
2023-04-10T21:29:12.691Z,100600.44
2023-04-10T21:31:41.641Z,100602.28
2023-04-10T21:34:10.233Z,100590.78
2023-04-10T21:36:37.840Z,100588.53
2023-04-10T21:39:09.076Z,100596.75
2023-04-10T21:41:37.349Z,100604.16
2023-04-10T21:44:05.193Z,100593.44
2023-04-10T21:46:33.385Z,100605.81
2023-04-10T21:49:02.967Z,100590.00
2023-04-10T21:51:31.049Z,100598.81
2023-04-10T21:53:58.737Z,100594.94
2023-04-10T21:56:26.363Z,100609.72
2023-04-10T21:58:54.416Z,100602.94
2023-04-10T22:01:22.338Z,100610.97
2023-04-10T22:03:50.584Z,100609.13
2023-04-10T22:06:19.725Z,100613.03
2023-04-10T22:08:47.329Z,100601.50
2023-04-10T22:11:14.992Z,100611.16
2023-04-10T22:13:42.622Z,100605.00
2023-04-10T22:16:10.344Z,100600.50
2023-04-10T22:18:37.967Z,100619.38
2023-04-10T22:21:06.071Z,100611.16
2023-04-10T22:23:35.047Z,100619.97
2023-04-10T22:26:02.778Z,100607.44
2023-04-10T22:28:30.384Z,100608.88
2023-04-10T22:30:58.064Z,100600.25
2023-04-10T22:33:25.805Z,100600.66
2023-04-10T22:35:53.662Z,100595.09
2023-04-10T22:38:21.316Z,100595.50
2023-04-10T22:40:50.243Z,100583.78
2023-04-10T22:43:17.812Z,100576.81
2023-04-10T22:45:45.440Z,100560.38
2023-04-10T22:48:13.115Z,100558.31
2023-04-10T22:50:40.990Z,100546.00
2023-04-10T22:53:09.991Z,100548.84
2023-04-10T22:55:38.300Z,100540.03
2023-04-10T22:58:07.262Z,100541.44
2023-04-10T23:00:35.500Z,100533.81
2023-04-10T23:03:03.612Z,100522.53
2023-04-10T23:05:32.876Z,100526.44
2023-04-10T23:08:00.582Z,100523.56
2023-04-10T23:10:28.383Z,100531.56
2023-04-10T23:12:55.979Z,100540.94
2023-04-10T23:15:25.137Z,100540.34
2023-04-10T23:17:52.847Z,100534.16
2023-04-10T23:20:20.706Z,100538.88
2023-04-10T23:22:48.691Z,100530.81
2023-04-10T23:25:16.468Z,100537.16
2023-04-10T23:27:44.117Z,100526.88
2023-04-10T23:30:12.206Z,100512.56
2023-04-10T23:32:41.265Z,100512.31
2023-04-10T23:35:09.564Z,100502.25
2023-04-10T23:37:37.271Z,100500.84
2023-04-10T23:40:05.879Z,100496.09
2023-04-10T23:42:33.498Z,100484.63
2023-04-10T23:45:01.155Z,100492.00
2023-04-10T23:47:28.876Z,100489.94
2023-04-10T23:49:58.482Z,100479.06
2023-04-10T23:52:26.200Z,100482.34
2023-04-10T23:54:56.596Z,100477.84
2023-04-10T23:57:24.262Z,100469.88
2023-04-10T23:59:52.230Z,100467.41
